Latest Weather Observations for Cape Flattery

IDQ60801

Issued at 7:32 pm EST Wednesday 24 May 2017 (issued every 30 minutes, with the page automatically refreshed every 10 minutes)

About weather observations | Map of weather stations | Latest weather observations for QLD | Other Formats
Station Details ID: 031213 Name: CAPE FLATTERY Lat: -14.97 Lon: 145.31 Height: 18.5 m
Data from the previous 72 hours. | See also: Recent months at Cape Flattery
Date/Time
EST
Temp
°C
App
Temp
°C
Dew
Point
°C
Rel
Hum
%
Delta-T
°C
Wind Press
QNH
hPa
Press
MSL
hPa
Rain since
9am
mm
Dir  Spd
km/h
Gust
km/h
Spd
kts
Gust
kts
24/07:30pm 23.5 21.9 20.8 85 1.8 SE 30 39 16 21 1015.0 1014.9 1.0
24/07:00pm 24.5 23.1 21.2 82 2.2 SE 30 41 16 22 1014.5 1014.4 0.8
24/06:30pm 24.3 22.8 21.0 82 2.2 SE 30 37 16 20 1014.3 1014.2 0.8
24/06:00pm 24.2 23.1 21.1 83 2.0 SE 28 37 15 20 1014.2 1014.1 0.8
24/05:30pm 24.5 23.4 21.8 85 1.8 SSE 30 43 16 23 1013.9 1013.8 0.8
24/05:00pm 23.1 20.6 19.7 81 2.2 SE 32 46 17 25 1013.8 1013.7 0.8
24/04:34pm 24.3 22.2 19.8 76 2.9 SE 30 48 16 26 1013.9 1013.8 0.4
24/04:30pm 26.5 25.2 21.3 73 3.5 SE 30 39 16 21 1013.6 1013.5 0.0
24/04:00pm 26.7 25.3 21.2 72 3.6 SE 30 44 16 24 1013.5 1013.4 0.0
24/03:30pm 27.5 25.8 21.3 69 4.1 SE 32 43 17 23 1013.5 1013.4 0.0
24/03:00pm 27.8 26.9 22.1 71 3.8 SE 30 39 16 21 1013.5 1013.4 0.0
24/02:30pm 27.7 26.1 21.5 69 4.1 SE 32 43 17 23 1013.7 1013.6 0.0
24/02:00pm 28.0 25.8 20.8 65 4.8 SE 33 44 18 24 1013.9 1013.8 0.0
24/01:30pm 27.9 25.6 21.2 67 4.5 SE 35 44 19 24 1014.1 1014.0 0.0
24/01:00pm 28.1 25.5 20.6 63 4.9 SE 35 50 19 27 1014.5 1014.4 0.0
24/12:30pm 28.2 26.7 22.0 69 4.2 SE 33 44 18 24 1015.1 1015.0 0.0
24/12:00pm 28.4 27.0 21.9 68 4.4 SE 32 44 17 24 1015.4 1015.3 0.0
24/11:30am 28.0 26.5 21.8 69 4.2 SE 32 41 17 22 1015.9 1015.8 0.0
24/11:00am 27.3 25.0 21.3 69 4.0 SE 35 46 19 25 1016.1 1016.0 0.0
24/10:30am 27.7 26.2 21.7 70 4.0 SE 32 46 17 25 1016.4 1016.3 0.0
24/10:00am 27.6 26.4 22.3 73 3.6 SE 32 46 17 25 1016.4 1016.3 0.0
24/09:30am 25.4 25.0 21.7 80 2.5 SE 26 41 14 22 1016.4 1016.3 0.0
24/09:00am 25.4 25.1 21.9 81 2.3 SE 26 37 14 20 1016.2 1016.1 0.4
24/08:30am 25.7 25.8 21.8 79 2.6 SE 24 35 13 19 1016.0 1015.9 0.4
24/08:00am 25.3 23.5 21.6 80 2.5 SE 33 52 18 28 1015.6 1015.5 0.4
24/07:57am 25.2 23.4 21.1 78 2.7 SE 32 52 17 28 1015.6 1015.5 0.4
24/07:30am 26.0 25.4 21.9 78 2.7 SE 28 37 15 20 1015.1 1015.0 0.4
24/07:00am 25.2 25.3 21.9 82 2.2 SE 24 35 13 19 1014.6 1014.5 0.4
24/06:30am 25.0 25.0 21.7 82 2.2 SE 24 33 13 18 1014.3 1014.2 0.4
24/06:00am 24.9 25.1 22.0 84 1.9 SE 24 32 13 17 1014.0 1013.9 0.4
24/05:30am 25.0 24.8 22.1 84 1.9 SE 26 39 14 21 1013.8 1013.7 0.4
24/05:00am 25.0 25.3 22.3 85 1.8 SE 24 33 13 18 1013.5 1013.4 0.4
24/04:30am 24.9 25.1 22.0 84 1.9 SE 24 33 13 18 1013.3 1013.2 0.4
24/04:00am 24.9 24.9 22.4 86 1.7 SE 26 35 14 19 1013.1 1013.0 0.4
24/03:30am 24.9 24.9 22.4 86 1.7 SE 26 37 14 20 1013.2 1013.1 0.4
24/03:00am 24.8 25.3 22.7 88 1.4 SE 24 33 13 18 1013.3 1013.2 0.4
24/02:30am 24.9 25.5 22.8 88 1.4 SE 24 33 13 18 1013.3 1013.2 0.4
24/02:00am 25.0 25.2 22.7 87 1.5 SE 26 37 14 20 1013.5 1013.4 0.4
24/01:30am 24.9 24.6 22.6 87 1.5 SE 28 37 15 20 1013.9 1013.8 0.4
24/01:00am 25.0 25.4 23.1 89 1.3 SE 26 37 14 20 1014.2 1014.1 0.4
24/12:30am 24.9 25.3 23.1 90 1.2 SE 26 35 14 19 1014.3 1014.2 0.4
24/12:00am 24.9 25.4 23.3 91 1.1 SE 26 35 14 19 1014.3 1014.2 0.4
 
Date/Time
EST
Temp
°C
App
Temp
°C
Dew
Point
°C
Rel
Hum
%
Delta-T
°C
Wind Press
QNH
hPa
Press
MSL
hPa
Rain since
9am
mm
Dir  Spd
km/h
Gust
km/h
Spd
kts
Gust
kts
23/11:30pm 24.9 25.0 23.3 91 1.1 SE 28 39 15 21 1014.7 1014.6 0.4
23/11:00pm 24.9 25.6 23.7 93 0.8 SE 26 35 14 19 1014.8 1014.7 0.4
23/10:30pm 24.4 24.4 23.0 92 0.9 SE 28 35 15 19 1014.8 1014.7 0.4
23/10:00pm 24.5 26.3 23.6 95 0.6 SE 20 28 11 15 1014.9 1014.8 0.4
23/09:30pm 24.2 24.6 23.2 94 0.7 SSE 26 35 14 19 1014.7 1014.6 0.0
23/09:00pm 24.5 24.2 23.3 93 0.8 SSE 30 43 16 23 1014.5 1014.4 0.0
23/08:30pm 24.3 24.8 23.3 94 0.7 SSE 26 35 14 19 1014.4 1014.3 0.0
23/08:00pm 24.0 24.7 23.0 94 0.7 SSE 24 33 13 18 1014.1 1014.0 0.0
23/07:30pm 24.5 23.6 22.8 90 1.1 SSE 32 44 17 24 1013.7 1013.6 0.0
23/07:00pm 25.0 24.4 22.7 87 1.5 SSE 30 39 16 21 1013.3 1013.2 0.0
23/06:30pm 25.1 24.6 22.2 84 1.9 SSE 28 39 15 21 1013.1 1013.0 0.0
23/06:00pm 25.0 24.2 22.3 85 1.8 SSE 30 39 16 21 1012.8 1012.7 0.0
23/05:30pm 25.3 24.8 22.2 83 2.1 SSE 28 39 15 21 1012.6 1012.5 0.0
23/05:00pm 25.4 24.2 22.3 83 2.1 SSE 32 39 17 21 1012.4 1012.3 0.0
23/04:30pm 25.6 24.7 22.1 81 2.3 SSE 30 41 16 22 1012.2 1012.1 0.0
23/04:00pm 25.8 24.4 21.9 79 2.6 SSE 32 43 17 23 1012.1 1012.0 0.0
23/03:30pm 26.2 24.5 21.4 75 3.2 SSE 32 43 17 23 1012.0 1011.9 0.0
23/03:00pm 26.9 25.3 21.6 72 3.5 SSE 32 44 17 24 1012.0 1011.9 0.0
23/02:30pm 27.4 26.1 22.4 74 3.4 SSE 33 44 18 24 1012.0 1011.9 0.0
23/02:00pm 27.1 25.3 22.3 75 3.2 SSE 35 46 19 25 1012.3 1012.2 0.0
23/01:30pm 27.6 26.7 22.1 72 3.7 SSE 30 41 16 22 1012.8 1012.7 0.0
23/01:00pm 27.8 25.2 20.6 65 4.7 SE 35 46 19 25 1013.2 1013.1 0.0
23/12:30pm 28.4 26.7 21.4 66 4.7 SE 32 46 17 25 1013.8 1013.7 0.0
23/12:00pm 27.6 24.9 20.4 65 4.7 SE 35 44 19 24 1014.4 1014.3 0.0
23/11:30am 27.8 25.3 20.9 66 4.6 SE 35 46 19 25 1014.8 1014.7 0.0
23/11:00am 27.6 25.9 21.4 69 4.1 SE 32 44 17 24 1015.2 1015.1 0.0
23/10:30am 26.4 25.3 21.8 76 3.1 SSE 30 37 16 20 1015.5 1015.4 0.0
23/10:00am 25.9 24.1 21.6 77 2.9 SSE 33 41 18 22 1015.6 1015.5 0.0
23/09:30am 26.5 25.6 21.5 74 3.3 SE 28 39 15 21 1015.5 1015.4 0.0
23/09:00am 24.7 22.4 20.6 78 2.7 SE 33 52 18 28 1015.4 1015.3 0.0
23/08:54am 25.9 24.5 22.0 79 2.6 SE 32 52 17 28 1015.3 1015.2 0.0
23/08:30am 25.3 24.8 22.2 83 2.1 SE 28 41 15 22 1015.1 1015.0 0.0
23/08:00am 24.7 25.7 22.9 90 1.2 SE 22 30 12 16 1014.8 1014.7 0.0
23/07:30am 24.0 24.0 22.4 91 1.1 SE 26 41 14 22 1014.6 1014.5 0.0
23/07:00am 24.0 23.5 22.1 89 1.3 SSE 28 35 15 19 1014.4 1014.3 0.0
23/06:30am 24.4 23.4 21.9 86 1.7 SSE 30 41 16 22 1014.1 1014.0 0.0
23/06:00am 24.1 23.3 21.6 86 1.7 SSE 28 41 15 22 1013.8 1013.7 0.0
23/05:30am 24.3 22.6 21.4 84 1.9 SSE 32 43 17 23 1013.6 1013.5 0.0
23/05:00am 24.4 23.2 21.5 84 1.9 SSE 30 41 16 22 1013.3 1013.2 0.0
23/04:30am 24.3 23.0 21.4 84 1.9 SSE 30 39 16 21 1013.3 1013.2 0.0
23/04:00am 24.1 22.8 21.4 85 1.8 SSE 30 39 16 21 1013.3 1013.2 0.0
23/03:30am 24.0 23.0 21.3 85 1.8 SSE 28 39 15 21 1013.4 1013.3 0.0
23/03:00am 24.1 22.4 21.4 85 1.8 SSE 32 39 17 21 1013.5 1013.4 0.0
23/02:30am 24.2 23.3 21.5 85 1.8 SSE 28 37 15 20 1013.6 1013.5 0.0
23/02:00am 24.0 22.7 21.3 85 1.8 SSE 30 39 16 21 1013.9 1013.8 0.0
23/01:30am 24.1 22.3 21.2 84 1.9 SSE 32 41 17 22 1014.0 1013.9 0.0
23/01:00am 24.0 22.6 21.1 84 1.9 SSE 30 41 16 22 1014.2 1014.1 0.0
23/12:30am 24.1 22.6 21.0 83 2.0 SSE 30 39 16 21 1014.5 1014.4 0.0
23/12:00am 24.4 23.3 21.1 82 2.2 SSE 28 37 15 20 1014.9 1014.8 0.0
 
Date/Time
EST
Temp
°C
App
Temp
°C
Dew
Point
°C
Rel
Hum
%
Delta-T
°C
Wind Press
QNH
hPa
Press
MSL
hPa
Rain since
9am
mm
Dir  Spd
km/h
Gust
km/h
Spd
kts
Gust
kts
22/11:30pm 24.5 23.8 21.0 81 2.3 SSE 26 37 14 20 1015.2 1015.1 0.0
22/11:00pm 24.5 23.3 20.8 80 2.4 SSE 28 37 15 20 1015.4 1015.3 0.0
22/10:30pm 24.6 22.7 20.9 80 2.4 SSE 32 41 17 22 1015.3 1015.2 0.0
22/10:00pm 24.7 22.9 21.2 81 2.3 SSE 32 43 17 23 1015.3 1015.2 0.0
22/09:30pm 24.7 22.5 20.8 79 2.6 SSE 33 44 18 24 1015.2 1015.1 0.0
22/09:00pm 24.4 22.8 20.7 80 2.4 SSE 30 43 16 23 1015.1 1015.0 0.0
22/08:30pm 24.6 23.2 21.1 81 2.3 SSE 30 41 16 22 1014.8 1014.7 0.0
22/08:00pm 24.6 22.8 21.1 81 2.3 SSE 32 43 17 23 1014.5 1014.4 0.0
22/07:30pm 24.7 22.9 21.2 81 2.3 SSE 32 43 17 23 1014.1 1014.0 0.0
22/07:00pm 24.5 22.7 21.2 82 2.2 SSE 32 43 17 23 1013.7 1013.6 0.0
22/06:30pm 24.5 23.6 21.4 83 2.0 SSE 28 37 15 20 1013.5 1013.4 0.0
22/06:00pm 24.5 22.9 21.6 84 1.9 SSE 32 41 17 22 1013.2 1013.1 0.0
22/05:30pm 24.7 23.8 21.4 82 2.2 SSE 28 35 15 19 1013.2 1013.1 0.0
22/05:00pm 25.5 23.7 21.6 79 2.6 SSE 33 41 18 22 1012.9 1012.8 0.0
22/04:30pm 26.2 24.6 21.6 76 3.1 SSE 32 48 17 26 1012.8 1012.7 0.0
22/04:00pm 26.4 24.9 22.0 77 2.9 SSE 33 44 18 24 1012.7 1012.6 0.0
22/03:30pm 26.6 25.0 21.8 75 3.2 SSE 33 44 18 24 1012.8 1012.7 0.0
22/03:00pm 26.1 24.3 21.5 76 3.1 SSE 33 48 18 26 1012.7 1012.6 0.0
22/02:30pm 27.1 24.5 22.1 74 3.4 SSE 39 50 21 27 1012.8 1012.7 0.0
22/02:00pm 27.0 24.3 22.0 74 3.4 SSE 39 48 21 26 1013.0 1012.9 0.0
22/01:30pm 27.3 26.0 22.5 75 3.2 SSE 33 43 18 23 1013.4 1013.3 0.0
22/01:00pm 26.8 24.5 22.0 75 3.2 SSE 37 46 20 25 1013.9 1013.8 0.0
22/12:30pm 27.0 25.5 22.0 74 3.4 SSE 33 46 18 25 1014.3 1014.2 0.0
22/12:00pm 27.1 25.3 22.3 75 3.2 SSE 35 48 19 26 1014.6 1014.5 0.0
22/11:30am 27.0 24.9 21.7 73 3.5 SSE 35 50 19 27 1014.9 1014.8 0.0
22/11:00am 27.0 24.2 21.7 73 3.5 SSE 39 50 21 27 1015.1 1015.0 0.0
22/10:30am 27.6 25.1 20.9 67 4.4 SE 35 46 19 25 1015.4 1015.3 0.0
22/10:00am 27.4 25.1 20.2 65 4.7 SE 32 48 17 26 1015.6 1015.5 0.0
22/09:30am 26.9 24.1 20.3 67 4.3 SE 35 48 19 26 1015.5 1015.4 0.0
22/09:00am 26.6 23.3 20.0 67 4.3 SE 37 52 20 28 1015.4 1015.3 0.0
22/08:30am 26.3 23.9 20.4 70 3.9 SE 33 44 18 24 1015.3 1015.2 0.0
22/08:00am 25.8 23.1 20.4 72 3.5 SE 35 48 19 26 1015.0 1014.9 0.0
22/07:30am 25.4 22.6 20.2 73 3.4 SE 35 46 19 25 1014.7 1014.6 0.0
22/07:00am 24.9 21.9 19.9 74 3.2 SE 35 48 19 26 1014.4 1014.3 0.0
22/06:30am 24.7 21.8 20.0 75 3.0 SSE 35 44 19 24 1014.0 1013.9 0.0
22/06:00am 24.4 22.8 21.5 84 1.9 SSE 32 41 17 22 1013.7 1013.6 0.0
22/05:30am 24.5 22.3 21.4 83 2.0 SSE 35 44 19 24 1013.3 1013.2 0.0
22/05:00am 24.9 21.8 20.4 76 2.9 SE 37 50 20 27 1013.1 1013.0 0.0
22/04:30am 24.9 22.1 20.2 75 3.1 SE 35 48 19 26 1013.0 1012.9 0.0
22/04:00am 24.9 22.7 20.8 78 2.7 SE 33 44 18 24 1012.9 1012.8 0.0
22/03:30am 24.9 22.1 20.2 75 3.1 SE 35 46 19 25 1012.8 1012.7 0.0
22/03:00am 25.0 22.7 20.5 76 2.9 SE 33 44 18 24 1013.0 1012.9 0.0
22/02:30am 24.9 22.8 20.6 77 2.8 SE 32 44 17 24 1013.0 1012.9 0.0
22/02:00am 24.9 22.2 20.4 76 2.9 SE 35 44 19 24 1013.2 1013.1 0.0
22/01:30am 25.0 22.4 20.7 77 2.8 SE 35 48 19 26 1013.3 1013.2 0.0
22/01:00am 24.9 22.9 20.8 78 2.7 SE 32 44 17 24 1013.5 1013.4 0.0
22/12:30am 25.0 22.8 20.7 77 2.8 SE 33 44 18 24 1013.6 1013.5 0.0
22/12:00am 25.0 22.5 20.9 78 2.7 SE 35 46 19 25 1013.8 1013.7 0.0
 
Date/Time
EST
Temp
°C
App
Temp
°C
Dew
Point
°C
Rel
Hum
%
Delta-T
°C
Wind Press
QNH
hPa
Press
MSL
hPa
Rain since
9am
mm
Dir  Spd
km/h
Gust
km/h
Spd
kts
Gust
kts
21/11:30pm 25.2 22.5 21.3 79 2.6 SE 37 46 20 25 1014.1 1014.0 0.0
21/11:00pm 25.2 22.9 21.3 79 2.6 SE 35 48 19 26 1014.0 1013.9 0.0
21/10:30pm 25.0 23.1 20.9 78 2.7 SE 32 50 17 27 1014.0 1013.9 0.0
21/10:00pm 25.3 23.2 21.6 80 2.5 SSE 35 46 19 25 1013.9 1013.8 0.0
21/09:30pm 25.3 23.4 21.4 79 2.6 SE 33 50 18 27 1013.9 1013.8 0.0
21/09:27pm 25.2 23.5 21.3 79 2.6 SE 32 50 17 27 1013.8 1013.7 0.0
21/09:00pm 25.2 23.5 21.7 81 2.3 SE 33 44 18 24 1013.7 1013.6 0.0
21/08:30pm 25.2 23.0 21.5 80 2.5 SSE 35 44 19 24 1013.5 1013.4 0.0
21/08:00pm 24.9 23.7 21.6 82 2.2 SSE 30 46 16 25 1013.3 1013.2 0.0

Other Formats:

Comma delimited format used in spreadsheet applications
http://www.bom.gov.au/fwo/IDQ60801/IDQ60801.94188.axf

JavaScript Object Notation format (JSON) in row-major order
http://www.bom.gov.au/fwo/IDQ60801/IDQ60801.94188.json